Malaspina — WI6803 — position and weather

sailwx.info

Track history (hours):
 
Tides and Currents Weather Stations Pressure Air Temp Water Temp Dewpoint Dewpoint Depression Visibility Wind Speed Wind Dir Waves Ship Positions

Malaspina

Owner: ALASKA, STATE OF, ANCHORAGE, AK. More information available from US FCC via Universal Licensing System and Coast Guard Vessel Documentation Center.

Last reported at 2019-Jul-20 00:59 UTC. Time now 2019-Jul-20 01:03 UTC.
Position N 54°18' W 130°21'.

Type: Passenger vessel. MMSI: 367143000.

Date/timePositionNaut miles runAvg speedWind from/ knotsBaromVisibWave heightAir tempDewpointWater temp
2019-Jul-20 00:59N 54°18' W 130°21'0 0.0
2019-Jul-20 00:26N 54°18' W 130°21'0 0.0
2019-Jul-19 23:53N 54°18' W 130°21'0 0.0
2019-Jul-19 23:26N 54°18' W 130°21'0 0.0
2019-Jul-19 22:56N 54°18' W 130°21'0 0.0
2019-Jul-19 22:29N 54°18' W 130°21'0 0.0
2019-Jul-19 21:59N 54°18' W 130°21'0 0.1
2019-Jul-19 21:30N 54°18' W 130°21'4 8.4
2019-Jul-19 21:00N 54°14' W 130°21'612.5
2019-Jul-19 20:30N 54°16' W 130°31'714.1
2019-Jul-19 20:00N 54°22' W 130°36'714.7
2019-Jul-19 19:30N 54°30' W 130°38'714.4
2019-Jul-19 19:00N 54°37' W 130°42'714.4
2019-Jul-19 18:30N 54°42' W 130°51'714.6
2019-Jul-19 18:01N 54°48' W 130°58'  
2019-Jul-16 12:49N 54°49' W 131°03'515.3
2019-Jul-16 12:30N 54°46' W 130°57'815.5
2019-Jul-16 12:00N 54°40' W 130°48'715.1
2019-Jul-16 11:30N 54°34' W 130°40'815.1
2019-Jul-16 11:00N 54°27' W 130°38'815.2
2019-Jul-16 10:30N 54°19' W 130°36'714.9
2019-Jul-16 10:00N 54°14' W 130°27'4 7.6
2019-Jul-16 09:31N 54°17' W 130°22'1 2.0
2019-Jul-16 08:58N 54°18' W 130°21'0 0.0
2019-Jul-16 08:07N 54°18' W 130°21'0 0.0
2019-Jul-16 07:55N 54°18' W 130°21'0 0.0
2019-Jul-16 07:01N 54°18' W 130°21'0 0.0
2019-Jul-16 06:49N 54°18' W 130°21'0 0.0
2019-Jul-16 06:19N 54°18' W 130°21'0 0.0
2019-Jul-16 05:55N 54°18' W 130°21'0 0.0
2019-Jul-16 05:19N 54°18' W 130°21'0 0.0
2019-Jul-16 05:00N 54°18' W 130°21'1 2.0
2019-Jul-16 04:30N 54°17' W 130°22'4 7.7
2019-Jul-16 04:01N 54°13' W 130°25'815.1
2019-Jul-16 03:30N 54°18' W 130°35'714.9
2019-Jul-16 03:00N 54°26' W 130°37'714.8
2019-Jul-16 02:30N 54°33' W 130°40'714.2
2019-Jul-16 02:01N 54°39' W 130°46'814.5
2019-Jul-16 01:29N 54°44' W 130°55'714.3
2019-Jul-16 01:00N 54°50' W 131°01'  
2019-Jul-13 03:51N 54°47' W 130°58'616.6
2019-Jul-13 03:30N 54°43' W 130°52'916.5
2019-Jul-13 02:58N 54°36' W 130°42'716.1
2019-Jul-13 02:31N 54°29' W 130°38'816.7
2019-Jul-13 02:00N 54°21' W 130°36'815.3
2019-Jul-13 01:31N 54°15' W 130°28'4 7.5
2019-Jul-13 01:00N 54°16' W 130°22'2 3.4
2019-Jul-13 00:29N 54°18' W 130°21'0 0.0
2019-Jul-12 23:59N 54°18' W 130°21'0 0.0
2019-Jul-12 23:29N 54°18' W 130°21'0 0.0
2019-Jul-12 22:47N 54°18' W 130°21'0 0.0
2019-Jul-12 22:29N 54°18' W 130°21'0 0.0
2019-Jul-12 21:59N 54°18' W 130°21'0 0.0
2019-Jul-12 21:29N 54°18' W 130°21'0 0.0
2019-Jul-12 20:59N 54°18' W 130°21'0 0.0
2019-Jul-12 20:30N 54°18' W 130°21'1 2.2
2019-Jul-12 20:00N 54°17' W 130°22'4 7.6
2019-Jul-12 19:31N 54°13' W 130°25'816.2
2019-Jul-12 19:00N 54°19' W 130°35'816.7
2019-Jul-12 18:30N 54°27' W 130°38'816.5
2019-Jul-12 18:00N 54°35' W 130°41'816.1
2019-Jul-12 17:30N 54°42' W 130°50'916.5
2019-Jul-12 16:58N 54°49' W 130°59'  
Track history (hours):
 
Tides and Currents Weather Stations Pressure Air Temp Water Temp Dewpoint Dewpoint Depression Visibility Wind Speed Wind Dir Waves Ship Positions

Malaspina

Owner: ALASKA, STATE OF, ANCHORAGE, AK. More information available from US FCC via Universal Licensing System and Coast Guard Vessel Documentation Center.

Last reported at 2019-Jul-20 00:59 UTC. Time now 2019-Jul-20 01:03 UTC.
Position N 54°18' W 130°21'.

Type: Passenger vessel. MMSI: 367143000.

Date/timePositionNaut miles runAvg speedWind from/ knotsBaromVisibWave heightAir tempDewpointWater temp
2019-Jul-20 00:59N 54°18' W 130°21'0 0.0
2019-Jul-20 00:26N 54°18' W 130°21'0 0.0
2019-Jul-19 23:53N 54°18' W 130°21'0 0.0
2019-Jul-19 23:26N 54°18' W 130°21'0 0.0
2019-Jul-19 22:56N 54°18' W 130°21'0 0.0
2019-Jul-19 22:29N 54°18' W 130°21'0 0.0
2019-Jul-19 21:59N 54°18' W 130°21'0 0.1
2019-Jul-19 21:30N 54°18' W 130°21'4 8.4
2019-Jul-19 21:00N 54°14' W 130°21'612.5
2019-Jul-19 20:30N 54°16' W 130°31'714.1
2019-Jul-19 20:00N 54°22' W 130°36'714.7
2019-Jul-19 19:30N 54°30' W 130°38'714.4
2019-Jul-19 19:00N 54°37' W 130°42'714.4
2019-Jul-19 18:30N 54°42' W 130°51'714.6
2019-Jul-19 18:01N 54°48' W 130°58'  
2019-Jul-16 12:49N 54°49' W 131°03'515.3
2019-Jul-16 12:30N 54°46' W 130°57'815.5
2019-Jul-16 12:00N 54°40' W 130°48'715.1
2019-Jul-16 11:30N 54°34' W 130°40'815.1
2019-Jul-16 11:00N 54°27' W 130°38'815.2
2019-Jul-16 10:30N 54°19' W 130°36'714.9
2019-Jul-16 10:00N 54°14' W 130°27'4 7.6
2019-Jul-16 09:31N 54°17' W 130°22'1 2.0
2019-Jul-16 08:58N 54°18' W 130°21'0 0.0
2019-Jul-16 08:07N 54°18' W 130°21'0 0.0
2019-Jul-16 07:55N 54°18' W 130°21'0 0.0
2019-Jul-16 07:01N 54°18' W 130°21'0 0.0
2019-Jul-16 06:49N 54°18' W 130°21'0 0.0
2019-Jul-16 06:19N 54°18' W 130°21'0 0.0
2019-Jul-16 05:55N 54°18' W 130°21'0 0.0
2019-Jul-16 05:19N 54°18' W 130°21'0 0.0
2019-Jul-16 05:00N 54°18' W 130°21'1 2.0
2019-Jul-16 04:30N 54°17' W 130°22'4 7.7
2019-Jul-16 04:01N 54°13' W 130°25'815.1
2019-Jul-16 03:30N 54°18' W 130°35'714.9
2019-Jul-16 03:00N 54°26' W 130°37'714.8
2019-Jul-16 02:30N 54°33' W 130°40'714.2
2019-Jul-16 02:01N 54°39' W 130°46'814.5
2019-Jul-16 01:29N 54°44' W 130°55'714.3
2019-Jul-16 01:00N 54°50' W 131°01'  
2019-Jul-13 03:51N 54°47' W 130°58'616.6
2019-Jul-13 03:30N 54°43' W 130°52'916.5
2019-Jul-13 02:58N 54°36' W 130°42'716.1
2019-Jul-13 02:31N 54°29' W 130°38'816.7
2019-Jul-13 02:00N 54°21' W 130°36'815.3
2019-Jul-13 01:31N 54°15' W 130°28'4 7.5
2019-Jul-13 01:00N 54°16' W 130°22'2 3.4
2019-Jul-13 00:29N 54°18' W 130°21'0 0.0
2019-Jul-12 23:59N 54°18' W 130°21'0 0.0
2019-Jul-12 23:29N 54°18' W 130°21'0 0.0
2019-Jul-12 22:47N 54°18' W 130°21'0 0.0
2019-Jul-12 22:29N 54°18' W 130°21'0 0.0
2019-Jul-12 21:59N 54°18' W 130°21'0 0.0
2019-Jul-12 21:29N 54°18' W 130°21'0 0.0
2019-Jul-12 20:59N 54°18' W 130°21'0 0.0
2019-Jul-12 20:30N 54°18' W 130°21'1 2.2
2019-Jul-12 20:00N 54°17' W 130°22'4 7.6
2019-Jul-12 19:31N 54°13' W 130°25'816.2
2019-Jul-12 19:00N 54°19' W 130°35'816.7
2019-Jul-12 18:30N 54°27' W 130°38'816.5
2019-Jul-12 18:00N 54°35' W 130°41'816.1
2019-Jul-12 17:30N 54°42' W 130°50'916.5
2019-Jul-12 16:58N 54°49' W 130°59'  

Dump ship's entire track history